createdAt,value
2018-09-13T00:00:24.058Z,19.44
2018-09-13T00:00:59.588Z,19.40
2018-09-13T00:01:34.781Z,19.34
2018-09-13T00:02:10.108Z,19.34
2018-09-13T00:02:45.398Z,19.31
2018-09-13T00:03:20.754Z,19.36
2018-09-13T00:03:56.204Z,19.34
2018-09-13T00:04:31.433Z,19.35
2018-09-13T00:05:07.445Z,19.31
2018-09-13T00:05:42.917Z,19.32
2018-09-13T00:06:19.142Z,19.36
2018-09-13T00:06:54.563Z,19.33
2018-09-13T00:07:30.420Z,19.34
2018-09-13T00:08:06.282Z,19.31
2018-09-13T00:08:41.091Z,19.34
2018-09-13T00:09:16.745Z,19.35
2018-09-13T00:09:52.014Z,19.34
2018-09-13T00:10:27.693Z,19.34
2018-09-13T00:11:02.948Z,19.32
2018-09-13T00:11:39.350Z,19.30
2018-09-13T00:12:14.662Z,19.28
2018-09-13T00:12:49.904Z,19.25
2018-09-13T00:13:25.188Z,19.23
2018-09-13T00:14:00.454Z,19.26
2018-09-13T00:14:35.666Z,19.22
2018-09-13T00:15:11.057Z,19.27
2018-09-13T00:15:46.290Z,19.20
2018-09-13T00:16:21.717Z,19.23
2018-09-13T00:16:56.918Z,19.23
2018-09-13T00:17:32.163Z,19.21
2018-09-13T00:18:07.381Z,19.25
2018-09-13T00:18:42.759Z,19.22
2018-09-13T00:19:17.884Z,19.20
2018-09-13T00:19:53.110Z,19.20
2018-09-13T00:20:28.293Z,19.18
2018-09-13T00:21:03.556Z,19.17
2018-09-13T00:21:38.746Z,19.15
2018-09-13T00:22:14.270Z,19.17
2018-09-13T00:22:49.532Z,19.17
2018-09-13T00:23:24.723Z,19.12
2018-09-13T00:23:59.962Z,19.11
2018-09-13T00:24:35.145Z,19.09
2018-09-13T00:25:10.405Z,19.07
2018-09-13T00:25:45.709Z,19.06
2018-09-13T00:26:20.959Z,19.07
2018-09-13T00:26:56.178Z,19.03
2018-09-13T00:27:31.399Z,19.00
2018-09-13T00:28:06.794Z,18.99
2018-09-13T00:28:42.170Z,18.97
2018-09-13T00:29:17.418Z,18.95
2018-09-13T00:29:53.514Z,18.91
2018-09-13T00:30:28.726Z,18.95
2018-09-13T00:31:04.016Z,18.95
2018-09-13T00:31:39.287Z,19.03
2018-09-13T00:32:14.604Z,18.97
2018-09-13T00:32:49.846Z,18.93
2018-09-13T00:33:25.071Z,18.90
2018-09-13T00:34:00.297Z,18.83
2018-09-13T00:34:35.520Z,18.86
2018-09-13T00:35:11.346Z,18.86
2018-09-13T00:35:46.717Z,18.88
2018-09-13T00:36:21.984Z,18.91
2018-09-13T00:36:57.230Z,18.85
2018-09-13T00:37:32.425Z,18.87
2018-09-13T00:38:08.070Z,18.86
2018-09-13T00:38:43.874Z,18.82
2018-09-13T00:39:19.139Z,18.79
2018-09-13T00:39:54.379Z,18.78
2018-09-13T00:40:29.570Z,18.77
2018-09-13T00:41:04.847Z,18.76
2018-09-13T00:41:40.313Z,18.76
2018-09-13T00:42:15.703Z,18.78
2018-09-13T00:42:50.930Z,18.80
2018-09-13T00:43:26.122Z,18.77
2018-09-13T00:44:01.473Z,18.78
2018-09-13T00:44:36.693Z,18.75
2018-09-13T00:45:11.973Z,18.82
2018-09-13T00:45:47.260Z,18.79
2018-09-13T00:46:22.519Z,18.78
2018-09-13T00:46:57.718Z,18.73
2018-09-13T00:47:32.938Z,18.73
2018-09-13T00:48:08.509Z,18.70
2018-09-13T00:48:43.885Z,18.70
2018-09-13T00:49:19.136Z,18.72
2018-09-13T00:49:54.371Z,18.74
2018-09-13T00:50:29.583Z,18.72
2018-09-13T00:51:05.155Z,18.73
2018-09-13T00:51:40.443Z,18.66
2018-09-13T00:52:15.837Z,18.61
2018-09-13T00:52:51.073Z,18.65
2018-09-13T00:53:26.297Z,18.63
2018-09-13T00:54:01.691Z,18.61
2018-09-13T00:54:36.901Z,18.60
2018-09-13T00:55:12.189Z,18.62
2018-09-13T00:55:47.646Z,18.60
2018-09-13T00:56:22.904Z,18.66
2018-09-13T00:56:58.096Z,18.64
2018-09-13T00:57:33.293Z,18.59
2018-09-13T00:58:08.498Z,18.59
2018-09-13T00:58:43.837Z,18.57
2018-09-13T00:59:19.057Z,18.52
2018-09-13T00:59:54.276Z,18.43
2018-09-13T01:00:29.544Z,18.40
2018-09-13T01:01:04.766Z,18.40
2018-09-13T01:01:40.076Z,18.43
2018-09-13T01:02:15.718Z,18.45
2018-09-13T01:02:51.375Z,18.38
2018-09-13T01:03:26.574Z,18.36
2018-09-13T01:04:01.782Z,18.35
2018-09-13T01:04:36.993Z,18.32
2018-09-13T01:05:12.330Z,18.32
2018-09-13T01:05:47.604Z,18.34
2018-09-13T01:06:22.861Z,18.33
2018-09-13T01:06:58.066Z,18.31
2018-09-13T01:07:33.291Z,18.32
2018-09-13T01:08:08.512Z,18.32
2018-09-13T01:08:43.835Z,18.37
2018-09-13T01:09:19.145Z,18.34
2018-09-13T01:09:54.384Z,18.38
2018-09-13T01:10:29.603Z,18.34
2018-09-13T01:11:04.866Z,18.35
2018-09-13T01:11:40.544Z,18.40
2018-09-13T01:12:15.959Z,18.42
2018-09-13T01:12:51.280Z,18.38
2018-09-13T01:13:26.509Z,18.34
2018-09-13T01:14:01.754Z,18.33
2018-09-13T01:14:36.942Z,18.33
2018-09-13T01:15:12.395Z,18.30
2018-09-13T01:15:47.718Z,18.30
2018-09-13T01:16:22.985Z,18.31
2018-09-13T01:16:58.183Z,18.31
2018-09-13T01:17:33.790Z,18.31
2018-09-13T01:18:09.026Z,18.33
2018-09-13T01:18:44.974Z,18.33
2018-09-13T01:19:19.693Z,18.31
2018-09-13T01:19:55.139Z,18.29
2018-09-13T01:20:30.474Z,18.28
2018-09-13T01:21:06.275Z,18.27
2018-09-13T01:21:41.621Z,18.27
2018-09-13T01:22:17.397Z,18.28
2018-09-13T01:22:52.656Z,18.29
2018-09-13T01:23:27.861Z,18.29
2018-09-13T01:24:03.056Z,18.27
2018-09-13T01:24:38.243Z,18.33
2018-09-13T01:25:13.631Z,18.26
2018-09-13T01:25:49.082Z,18.24
2018-09-13T01:26:24.370Z,18.24
2018-09-13T01:26:59.591Z,18.25
2018-09-13T01:27:34.835Z,18.20
2018-09-13T01:28:10.037Z,18.15
2018-09-13T01:28:45.546Z,18.16
2018-09-13T01:29:20.967Z,18.15
2018-09-13T01:29:56.797Z,18.17
2018-09-13T01:30:31.994Z,18.17
2018-09-13T01:31:07.262Z,18.18
2018-09-13T01:31:42.655Z,18.17
2018-09-13T01:32:17.874Z,18.17
2018-09-13T01:32:52.618Z,18.15
2018-09-13T01:33:27.814Z,18.16
2018-09-13T01:34:03.018Z,18.12
2018-09-13T01:34:38.558Z,18.10
2018-09-13T01:35:13.885Z,18.06
2018-09-13T01:35:49.334Z,18.12
2018-09-13T01:36:24.534Z,18.07
2018-09-13T01:36:59.805Z,18.08
2018-09-13T01:37:34.979Z,18.11
2018-09-13T01:38:10.363Z,18.10
2018-09-13T01:38:46.006Z,18.15
2018-09-13T01:39:21.375Z,18.06
2018-09-13T01:39:56.562Z,18.04
2018-09-13T01:40:31.756Z,18.03
2018-09-13T01:41:07.028Z,18.04
2018-09-13T01:41:42.519Z,18.03
2018-09-13T01:42:18.275Z,18.00
2018-09-13T01:42:53.494Z,18.03
2018-09-13T01:43:28.710Z,18.01
2018-09-13T01:44:03.962Z,18.01
2018-09-13T01:44:39.176Z,18.01
2018-09-13T01:45:14.413Z,18.03
2018-09-13T01:45:49.723Z,18.02
2018-09-13T01:46:24.912Z,17.96
2018-09-13T01:47:00.120Z,18.04
2018-09-13T01:47:35.319Z,18.05
2018-09-13T01:48:10.688Z,18.02
2018-09-13T01:48:46.066Z,18.02
2018-09-13T01:49:21.341Z,17.98
2018-09-13T01:49:56.546Z,18.00
2018-09-13T01:50:31.763Z,18.06
2018-09-13T01:51:07.050Z,18.02
2018-09-13T01:51:42.362Z,18.03
2018-09-13T01:52:17.811Z,18.01
2018-09-13T01:52:53.002Z,17.97
2018-09-13T01:53:28.206Z,17.95
2018-09-13T01:54:03.423Z,18.01
2018-09-13T01:54:38.966Z,18.02
2018-09-13T01:55:14.310Z,17.94
2018-09-13T01:55:49.684Z,17.87
2018-09-13T01:56:24.880Z,17.87
2018-09-13T01:57:00.074Z,17.84
2018-09-13T01:57:35.355Z,17.88
2018-09-13T01:58:10.697Z,17.91
2018-09-13T01:58:46.034Z,17.90
2018-09-13T01:59:21.265Z,17.90
2018-09-13T01:59:56.840Z,17.85
2018-09-13T02:00:32.388Z,17.84
2018-09-13T02:01:07.647Z,17.80
2018-09-13T02:01:42.921Z,17.79
2018-09-13T02:02:18.309Z,17.78
2018-09-13T02:02:53.536Z,17.74
2018-09-13T02:03:28.731Z,17.74
2018-09-13T02:04:04.182Z,17.74
2018-09-13T02:04:39.464Z,17.74
2018-09-13T02:05:14.732Z,17.79
2018-09-13T02:05:50.069Z,17.77
2018-09-13T02:06:25.238Z,17.75
2018-09-13T02:07:00.447Z,17.78
2018-09-13T02:07:35.674Z,17.75
2018-09-13T02:08:10.905Z,17.78
2018-09-13T02:08:46.426Z,17.73
2018-09-13T02:09:21.630Z,17.71
2018-09-13T02:09:56.822Z,17.71
2018-09-13T02:10:32.018Z,17.72
2018-09-13T02:11:07.282Z,17.72
2018-09-13T02:11:42.607Z,17.67
2018-09-13T02:12:17.961Z,17.67
2018-09-13T02:12:53.161Z,17.73
2018-09-13T02:13:28.373Z,17.74
2018-09-13T02:14:03.560Z,17.74
2018-09-13T02:14:38.786Z,17.74
2018-09-13T02:15:14.264Z,17.70
2018-09-13T02:15:49.788Z,17.75
2018-09-13T02:16:24.999Z,17.71
2018-09-13T02:17:00.205Z,17.69
2018-09-13T02:17:35.399Z,17.64
2018-09-13T02:18:10.171Z,17.61
2018-09-13T02:18:45.575Z,17.65
2018-09-13T02:19:20.801Z,17.64
2018-09-13T02:19:56.032Z,17.60
2018-09-13T02:20:31.216Z,17.59
2018-09-13T02:21:06.473Z,17.58
2018-09-13T02:21:41.772Z,17.54
2018-09-13T02:22:17.039Z,17.60
2018-09-13T02:22:52.818Z,17.58
2018-09-13T02:23:28.268Z,17.59
2018-09-13T02:24:03.505Z,17.57
2018-09-13T02:24:38.729Z,17.57
2018-09-13T02:25:14.349Z,17.58
2018-09-13T02:25:49.634Z,17.64
2018-09-13T02:26:24.978Z,17.65
2018-09-13T02:27:00.206Z,17.63
2018-09-13T02:27:35.395Z,17.57
2018-09-13T02:28:10.764Z,17.55
2018-09-13T02:28:46.125Z,17.61
2018-09-13T02:29:21.364Z,17.61
2018-09-13T02:29:56.661Z,17.64
2018-09-13T02:30:31.842Z,17.64
2018-09-13T02:31:07.039Z,17.59
2018-09-13T02:31:42.840Z,17.62
2018-09-13T02:32:18.180Z,17.59
2018-09-13T02:32:53.663Z,17.58
2018-09-13T02:33:28.857Z,17.56
2018-09-13T02:34:04.143Z,17.60
2018-09-13T02:34:39.336Z,17.56
2018-09-13T02:35:14.647Z,17.53
2018-09-13T02:35:50.092Z,17.60
2018-09-13T02:36:25.270Z,17.64
2018-09-13T02:37:00.483Z,17.66
2018-09-13T02:37:35.729Z,17.66
2018-09-13T02:38:11.060Z,17.65
2018-09-13T02:38:46.326Z,17.63
2018-09-13T02:39:21.569Z,17.69
2018-09-13T02:39:56.774Z,17.68
2018-09-13T02:40:32.074Z,17.66
2018-09-13T02:41:07.309Z,17.66
2018-09-13T02:41:42.943Z,17.68
2018-09-13T02:42:18.374Z,17.68
2018-09-13T02:42:53.620Z,17.69
2018-09-13T02:43:28.872Z,17.67
2018-09-13T02:44:04.302Z,17.69
2018-09-13T02:44:39.503Z,17.68
2018-09-13T02:45:14.846Z,17.68
2018-09-13T02:45:50.216Z,17.69
2018-09-13T02:46:25.463Z,17.64
2018-09-13T02:47:00.830Z,17.62
2018-09-13T02:47:36.097Z,17.58
2018-09-13T02:48:11.415Z,17.63
2018-09-13T02:48:47.134Z,17.61
2018-09-13T02:49:22.551Z,17.57
2018-09-13T02:49:57.911Z,17.58
2018-09-13T02:50:33.113Z,17.61
2018-09-13T02:51:08.496Z,17.59
2018-09-13T02:51:43.843Z,17.61
2018-09-13T02:52:19.157Z,17.59
2018-09-13T02:52:54.418Z,17.60
2018-09-13T02:53:29.619Z,17.56
2018-09-13T02:54:04.820Z,17.64
2018-09-13T02:54:40.071Z,17.54
2018-09-13T02:55:15.429Z,17.53
2018-09-13T02:55:50.936Z,17.54
2018-09-13T02:56:26.146Z,17.47
2018-09-13T02:57:01.333Z,17.51
2018-09-13T02:57:36.557Z,17.49
2018-09-13T02:58:11.896Z,17.46
2018-09-13T02:58:47.191Z,17.50
2018-09-13T02:59:22.622Z,17.50
2018-09-13T02:59:57.872Z,17.48
2018-09-13T03:00:33.104Z,17.47
2018-09-13T03:01:08.303Z,17.48
2018-09-13T03:01:43.708Z,17.47
2018-09-13T03:02:19.031Z,17.46
2018-09-13T03:02:54.608Z,17.42
2018-09-13T03:03:29.296Z,17.40
2018-09-13T03:04:04.638Z,17.38
2018-09-13T03:04:40.009Z,17.36
2018-09-13T03:05:15.328Z,17.40
2018-09-13T03:05:50.590Z,17.35
2018-09-13T03:06:25.772Z,17.40
2018-09-13T03:07:02.393Z,17.39
2018-09-13T03:07:37.613Z,17.36
2018-09-13T03:08:12.870Z,17.36
2018-09-13T03:08:48.558Z,17.36
2018-09-13T03:09:23.745Z,17.36
2018-09-13T03:09:58.931Z,17.30
2018-09-13T03:10:40.447Z,17.31
2018-09-13T03:11:15.222Z,17.34
2018-09-13T03:11:50.521Z,17.33
2018-09-13T03:12:25.755Z,17.31
2018-09-13T03:13:01.293Z,17.34
2018-09-13T03:13:36.495Z,17.33
2018-09-13T03:14:12.039Z,17.33
2018-09-13T03:14:47.362Z,17.30
2018-09-13T03:15:22.735Z,17.33
2018-09-13T03:15:57.954Z,17.35
2018-09-13T03:16:33.186Z,17.33
2018-09-13T03:17:08.819Z,17.30
2018-09-13T03:17:44.211Z,17.29
2018-09-13T03:18:19.564Z,17.33
2018-09-13T03:18:54.769Z,17.36
2018-09-13T03:19:30.002Z,17.31
2018-09-13T03:20:05.226Z,17.28
2018-09-13T03:20:40.751Z,17.26
2018-09-13T03:21:16.082Z,17.23
2018-09-13T03:21:51.697Z,17.19
2018-09-13T03:22:26.999Z,17.22
2018-09-13T03:23:02.350Z,17.20
2018-09-13T03:23:37.627Z,17.21
2018-09-13T03:24:13.005Z,17.24
2018-09-13T03:24:48.373Z,17.25
2018-09-13T03:25:23.589Z,17.23
2018-09-13T03:25:58.782Z,17.27
2018-09-13T03:26:34.459Z,17.27
2018-09-13T03:27:09.661Z,17.33
2018-09-13T03:27:45.126Z,17.31
2018-09-13T03:28:20.502Z,17.33
2018-09-13T03:28:55.720Z,17.31
2018-09-13T03:29:30.941Z,17.31
2018-09-13T03:30:06.154Z,17.30
2018-09-13T03:30:41.572Z,17.31
2018-09-13T03:31:17.039Z,17.35
2018-09-13T03:31:52.266Z,17.26
2018-09-13T03:32:27.478Z,17.27
2018-09-13T03:33:02.927Z,17.22
2018-09-13T03:33:38.458Z,17.33
2018-09-13T03:34:13.948Z,17.26
2018-09-13T03:34:49.315Z,17.26
2018-09-13T03:35:24.538Z,17.20
2018-09-13T03:35:59.748Z,17.17
2018-09-13T03:36:34.926Z,17.18
2018-09-13T03:37:10.164Z,17.26
2018-09-13T03:37:45.458Z,17.23
2018-09-13T03:38:20.727Z,17.24
2018-09-13T03:38:55.942Z,17.26
2018-09-13T03:39:31.271Z,17.25
2018-09-13T03:40:06.516Z,17.21
2018-09-13T03:40:41.818Z,17.22
2018-09-13T03:41:17.099Z,17.20
2018-09-13T03:41:52.395Z,17.18
2018-09-13T03:42:27.796Z,17.17
2018-09-13T03:43:03.015Z,17.18
2018-09-13T03:43:38.760Z,17.19
2018-09-13T03:44:14.100Z,17.18
2018-09-13T03:44:49.373Z,17.17
2018-09-13T03:45:24.675Z,17.20
2018-09-13T03:45:59.864Z,17.23
2018-09-13T03:46:41.984Z,17.23
2018-09-13T03:47:17.312Z,17.18
2018-09-13T03:47:52.557Z,17.11
2018-09-13T03:48:28.282Z,17.07
2018-09-13T03:49:03.488Z,17.04
2018-09-13T03:49:38.718Z,17.07
2018-09-13T03:50:14.239Z,17.11
2018-09-13T03:50:49.809Z,17.06
2018-09-13T03:51:25.110Z,17.09
2018-09-13T03:52:00.575Z,17.12
2018-09-13T03:52:35.740Z,17.08
2018-09-13T03:53:10.980Z,17.04
2018-09-13T03:53:46.311Z,17.02
2018-09-13T03:54:21.685Z,17.02
2018-09-13T03:54:56.902Z,16.98
2018-09-13T03:55:32.122Z,17.02
2018-09-13T03:56:07.469Z,17.02
2018-09-13T03:56:43.044Z,17.04
2018-09-13T03:57:18.577Z,17.04
2018-09-13T03:57:53.823Z,17.04
2018-09-13T03:58:28.982Z,17.04
2018-09-13T03:59:04.222Z,17.04
2018-09-13T03:59:39.447Z,17.02
2018-09-13T04:00:15.211Z,17.03
2018-09-13T04:00:50.640Z,17.05
2018-09-13T04:01:25.807Z,17.12
2018-09-13T04:02:00.985Z,17.15
2018-09-13T04:02:36.155Z,17.10
2018-09-13T04:03:12.355Z,17.05
2018-09-13T04:03:47.874Z,17.07
2018-09-13T04:04:23.278Z,17.15
2018-09-13T04:04:58.538Z,17.14
2018-09-13T04:05:33.826Z,17.11
2018-09-13T04:06:09.055Z,17.08
2018-09-13T04:06:44.335Z,17.08
2018-09-13T04:07:19.642Z,17.09
2018-09-13T04:07:55.213Z,17.02
2018-09-13T04:08:30.522Z,17.06
2018-09-13T04:09:08.831Z,17.03
2018-09-13T04:09:44.244Z,17.07
2018-09-13T04:10:19.560Z,17.01
2018-09-13T04:10:55.079Z,17.06
2018-09-13T04:11:30.276Z,17.06
2018-09-13T04:12:05.678Z,17.03
2018-09-13T04:12:40.926Z,17.06
2018-09-13T04:13:16.336Z,17.12
2018-09-13T04:13:51.595Z,17.12
2018-09-13T04:14:27.091Z,17.10
2018-09-13T04:15:02.274Z,17.07
2018-09-13T04:15:37.461Z,17.04
2018-09-13T04:16:12.695Z,17.03
2018-09-13T04:16:47.510Z,17.02
2018-09-13T04:17:22.710Z,17.02
2018-09-13T04:17:57.914Z,17.11
2018-09-13T04:18:33.112Z,17.11
2018-09-13T04:19:08.274Z,17.10
2018-09-13T04:19:44.422Z,17.08
2018-09-13T04:20:19.689Z,17.14
2018-09-13T04:20:54.869Z,17.09
2018-09-13T04:21:30.386Z,17.12
2018-09-13T04:22:05.951Z,17.11
2018-09-13T04:22:41.640Z,17.13
2018-09-13T04:23:17.076Z,17.10
2018-09-13T04:23:52.293Z,17.11
2018-09-13T04:24:27.687Z,17.10
2018-09-13T04:25:02.923Z,17.08
2018-09-13T04:25:38.203Z,17.07
2018-09-13T04:26:12.958Z,17.04
2018-09-13T04:26:47.743Z,17.06
2018-09-13T04:27:22.641Z,17.08
2018-09-13T04:27:57.891Z,17.07
2018-09-13T04:28:33.116Z,17.06
2018-09-13T04:29:08.287Z,17.08
2018-09-13T04:29:43.827Z,17.10
2018-09-13T04:30:19.277Z,17.06
2018-09-13T04:30:54.474Z,17.05
2018-09-13T04:31:29.657Z,17.13
2018-09-13T04:32:05.110Z,17.14
2018-09-13T04:32:40.318Z,17.12
2018-09-13T04:33:15.661Z,17.13
2018-09-13T04:33:50.937Z,17.06
2018-09-13T04:34:26.120Z,17.10
2018-09-13T04:35:01.309Z,17.07
2018-09-13T04:35:36.539Z,17.05
2018-09-13T04:36:12.377Z,17.06
2018-09-13T04:36:47.849Z,17.06
2018-09-13T04:37:23.104Z,17.04
2018-09-13T04:37:58.310Z,17.00
2018-09-13T04:38:33.552Z,17.00
2018-09-13T04:39:09.846Z,17.00
2018-09-13T04:39:45.260Z,17.02
2018-09-13T04:40:20.857Z,17.04
2018-09-13T04:40:56.039Z,17.04
2018-09-13T04:41:31.606Z,17.04
2018-09-13T04:42:06.816Z,17.06
2018-09-13T04:42:42.099Z,17.00
2018-09-13T04:43:17.510Z,17.02
2018-09-13T04:43:52.729Z,17.02
2018-09-13T04:44:27.908Z,17.00
2018-09-13T04:45:03.157Z,17.01
2018-09-13T04:45:38.304Z,17.02
2018-09-13T04:46:13.626Z,17.08
2018-09-13T04:46:49.013Z,17.06
2018-09-13T04:47:24.366Z,16.95
2018-09-13T04:47:59.554Z,16.99
2018-09-13T04:48:34.786Z,16.99
2018-09-13T04:49:09.505Z,16.96
2018-09-13T04:49:44.931Z,17.00
2018-09-13T04:50:20.202Z,16.91
2018-09-13T04:50:55.421Z,17.01
2018-09-13T04:51:30.618Z,17.02
2018-09-13T04:52:06.157Z,17.03
2018-09-13T04:52:41.494Z,17.08
2018-09-13T04:53:16.774Z,17.02
2018-09-13T04:53:52.002Z,17.04
2018-09-13T04:54:27.154Z,17.06
2018-09-13T04:55:02.320Z,17.04
2018-09-13T04:55:37.744Z,17.04
2018-09-13T04:56:13.249Z,16.99
2018-09-13T04:56:48.598Z,17.15
2018-09-13T04:57:23.854Z,17.10
2018-09-13T04:57:59.124Z,17.10
2018-09-13T04:58:34.396Z,17.08
2018-09-13T04:59:09.618Z,17.08
2018-09-13T04:59:45.003Z,17.07
2018-09-13T05:00:20.340Z,17.08
2018-09-13T05:00:55.701Z,17.07
2018-09-13T05:01:31.057Z,17.12
2018-09-13T05:02:06.295Z,17.09
2018-09-13T05:02:42.122Z,17.08
2018-09-13T05:03:17.520Z,17.03
2018-09-13T05:03:52.774Z,17.03
2018-09-13T05:04:27.960Z,16.97
2018-09-13T05:05:03.305Z,16.99
2018-09-13T05:05:37.978Z,16.99
2018-09-13T05:06:13.608Z,16.95
2018-09-13T05:06:48.831Z,16.96
2018-09-13T05:07:24.142Z,17.09
2018-09-13T05:07:59.306Z,17.08
2018-09-13T05:08:34.501Z,17.02
2018-09-13T05:09:12.366Z,17.00
2018-09-13T05:09:47.682Z,16.99
2018-09-13T05:10:22.903Z,17.00
2018-09-13T05:10:58.078Z,17.01
2018-09-13T05:11:33.263Z,17.01
2018-09-13T05:12:09.032Z,17.02
2018-09-13T05:13:47.492Z,16.99
2018-09-13T05:14:22.726Z,16.98
2018-09-13T05:14:57.889Z,16.98
2018-09-13T05:15:33.065Z,16.94
2018-09-13T05:16:08.222Z,17.00
2018-09-13T05:16:43.603Z,16.99
2018-09-13T05:17:19.018Z,16.95
2018-09-13T05:17:54.214Z,16.92
2018-09-13T05:18:29.511Z,16.98
2018-09-13T05:19:05.056Z,17.00
2018-09-13T05:19:40.330Z,17.01
2018-09-13T05:20:15.601Z,17.04
2018-09-13T05:20:50.862Z,16.99
2018-09-13T05:21:26.066Z,16.97
2018-09-13T05:22:01.234Z,16.98
2018-09-13T05:22:36.418Z,16.99
2018-09-13T05:23:11.843Z,16.98
2018-09-13T05:23:47.235Z,16.95
2018-09-13T05:24:22.518Z,17.01
2018-09-13T05:24:57.362Z,17.02
2018-09-13T05:25:32.559Z,17.03
2018-09-13T05:26:07.786Z,17.05
2018-09-13T05:26:43.322Z,17.07
2018-09-13T05:27:18.646Z,17.06
2018-09-13T05:27:53.813Z,17.04
2018-09-13T05:28:29.002Z,17.01
2018-09-13T05:29:04.573Z,17.09
2018-09-13T05:29:39.842Z,17.11
2018-09-13T05:30:15.282Z,17.09
2018-09-13T05:30:50.810Z,17.11
2018-09-13T05:31:26.059Z,17.09
2018-09-13T05:32:01.248Z,17.09
2018-09-13T05:32:36.476Z,17.07
2018-09-13T05:33:11.687Z,17.05
2018-09-13T05:33:46.984Z,17.06
2018-09-13T05:34:22.206Z,17.03
2018-09-13T05:34:57.368Z,16.99
2018-09-13T05:35:32.534Z,16.96
2018-09-13T05:36:07.736Z,16.93
2018-09-13T05:36:43.093Z,16.95
2018-09-13T05:37:18.348Z,16.92
2018-09-13T05:37:53.565Z,16.99
2018-09-13T05:38:28.785Z,16.99
2018-09-13T05:39:05.113Z,16.92
2018-09-13T05:39:40.346Z,16.89
2018-09-13T05:40:15.713Z,16.95
2018-09-13T05:40:50.950Z,17.00
2018-09-13T05:41:26.186Z,17.03
2018-09-13T05:42:01.369Z,17.03
2018-09-13T05:42:36.661Z,17.01
2018-09-13T05:43:12.008Z,17.08
2018-09-13T05:43:47.510Z,17.07
2018-09-13T05:44:22.724Z,17.11
2018-09-13T05:44:57.917Z,17.11
2018-09-13T05:45:33.143Z,17.14
2018-09-13T05:46:08.344Z,17.17
2018-09-13T05:46:43.664Z,17.21
2018-09-13T05:47:19.105Z,17.19
2018-09-13T05:47:54.314Z,17.15
2018-09-13T05:48:29.725Z,17.11
2018-09-13T05:49:05.023Z,17.10
2018-09-13T05:49:40.329Z,17.17
2018-09-13T05:50:15.624Z,17.12
2018-09-13T05:50:50.887Z,17.14
2018-09-13T05:51:26.115Z,17.19
2018-09-13T05:52:01.640Z,17.19
2018-09-13T05:52:36.855Z,17.20
2018-09-13T05:53:12.564Z,17.20
2018-09-13T05:53:47.833Z,17.20
2018-09-13T05:54:23.038Z,17.10
2018-09-13T05:54:58.219Z,17.06
2018-09-13T05:55:33.386Z,17.02
2018-09-13T05:56:08.585Z,17.00
2018-09-13T05:56:43.844Z,17.01
2018-09-13T05:57:19.173Z,17.03
2018-09-13T05:57:54.410Z,17.04
2018-09-13T05:58:29.604Z,17.05
2018-09-13T05:59:04.785Z,17.04
2018-09-13T05:59:39.990Z,17.05
2018-09-13T06:00:15.320Z,17.09
2018-09-13T06:00:50.841Z,17.14
2018-09-13T06:01:26.353Z,17.09
2018-09-13T06:02:01.673Z,17.06
2018-09-13T06:02:36.858Z,16.92
2018-09-13T06:03:12.248Z,17.13
2018-09-13T06:03:47.518Z,17.08
2018-09-13T06:04:22.746Z,17.08
2018-09-13T06:04:58.130Z,17.15
2018-09-13T06:05:33.281Z,17.14
2018-09-13T06:06:08.450Z,17.11
2018-09-13T06:06:43.838Z,17.08
2018-09-13T06:07:19.194Z,17.13
2018-09-13T06:07:54.500Z,17.16
2018-09-13T06:08:29.906Z,17.20
2018-09-13T06:09:06.803Z,17.23
2018-09-13T06:09:42.234Z,17.22
2018-09-13T06:10:17.693Z,17.21
2018-09-13T06:10:52.914Z,17.25
2018-09-13T06:11:28.142Z,17.24
2018-09-13T06:12:03.463Z,17.46
2018-09-13T06:12:38.636Z,17.38
2018-09-13T06:13:14.191Z,17.28
2018-09-13T06:13:49.897Z,17.28
2018-09-13T06:14:25.086Z,17.28
2018-09-13T06:15:00.325Z,17.31
2018-09-13T06:15:35.506Z,17.30
2018-09-13T06:16:11.194Z,17.30
2018-09-13T06:16:47.035Z,17.30
2018-09-13T06:17:22.355Z,17.34
2018-09-13T06:17:57.522Z,17.27
2018-09-13T06:18:33.050Z,17.26
2018-09-13T06:19:08.263Z,17.21
2018-09-13T06:19:43.684Z,17.27
2018-09-13T06:20:19.451Z,17.25
2018-09-13T06:20:54.726Z,17.37
2018-09-13T06:21:30.517Z,17.34
2018-09-13T06:22:06.099Z,17.30
2018-09-13T06:22:41.539Z,17.25
2018-09-13T06:23:16.834Z,17.31
2018-09-13T06:23:52.088Z,17.29
2018-09-13T06:24:27.269Z,17.31
2018-09-13T06:25:02.499Z,17.33
2018-09-13T06:25:37.666Z,17.35
2018-09-13T06:26:13.123Z,17.38
2018-09-13T06:26:48.704Z,17.48
2018-09-13T06:27:23.982Z,17.51
2018-09-13T06:27:59.229Z,17.44
2018-09-13T06:28:34.519Z,17.37
2018-09-13T06:29:09.259Z,17.49
2018-09-13T06:29:44.873Z,17.47
2018-09-13T06:30:20.352Z,17.42
2018-09-13T06:30:55.549Z,17.42
2018-09-13T06:31:30.746Z,17.37
2018-09-13T06:32:05.963Z,17.41
2018-09-13T06:32:41.358Z,17.47
2018-09-13T06:33:16.782Z,17.46
2018-09-13T06:33:52.161Z,17.52
2018-09-13T06:34:27.967Z,17.55
2018-09-13T06:35:03.563Z,17.51
2018-09-13T06:35:38.987Z,17.57
2018-09-13T06:36:14.323Z,17.63
2018-09-13T06:36:49.830Z,17.58
2018-09-13T06:37:25.054Z,17.56
2018-09-13T06:38:00.278Z,17.58
2018-09-13T06:38:35.458Z,17.56
2018-09-13T06:39:12.090Z,17.60
2018-09-13T06:39:47.403Z,17.57
2018-09-13T06:40:22.970Z,17.62
2018-09-13T06:40:58.175Z,17.60
2018-09-13T06:41:33.363Z,17.53
2018-09-13T06:42:08.587Z,17.61
2018-09-13T06:42:43.854Z,17.65
2018-09-13T06:43:19.102Z,17.66
2018-09-13T06:43:54.302Z,17.71
2018-09-13T06:44:29.512Z,17.65
2018-09-13T06:45:05.190Z,17.68
2018-09-13T06:45:40.412Z,17.68
2018-09-13T06:46:15.677Z,17.69
2018-09-13T06:46:50.976Z,17.68
2018-09-13T06:47:26.184Z,17.70
2018-09-13T06:48:01.355Z,17.79
2018-09-13T06:48:36.606Z,17.83
2018-09-13T06:49:12.365Z,17.84
2018-09-13T06:49:47.999Z,17.73
2018-09-13T06:50:23.277Z,17.73
2018-09-13T06:50:58.532Z,17.78
2018-09-13T06:51:33.748Z,17.89
2018-09-13T06:52:08.934Z,17.88
2018-09-13T06:52:44.530Z,17.96
2018-09-13T06:53:19.910Z,18.04
2018-09-13T06:53:55.106Z,18.07
2018-09-13T06:54:30.408Z,18.08
2018-09-13T06:55:05.914Z,18.08
2018-09-13T06:55:40.669Z,17.97
2018-09-13T06:56:16.056Z,18.05
2018-09-13T06:56:51.666Z,17.99
2018-09-13T06:57:26.858Z,17.97
2018-09-13T06:58:02.136Z,17.96
2018-09-13T06:58:37.730Z,17.88
2018-09-13T06:59:13.176Z,17.93
2018-09-13T06:59:47.937Z,18.13
2018-09-13T07:00:23.311Z,18.15
2018-09-13T07:00:58.572Z,18.13
2018-09-13T07:01:33.758Z,18.14
2018-09-13T07:02:08.936Z,18.15
2018-09-13T07:02:44.305Z,18.19
2018-09-13T07:03:19.610Z,18.15
2018-09-13T07:03:54.802Z,18.14
2018-09-13T07:04:29.988Z,18.18
2018-09-13T07:05:05.505Z,18.16
2018-09-13T07:05:40.753Z,18.16
2018-09-13T07:06:16.218Z,18.15
2018-09-13T07:06:51.563Z,18.20
2018-09-13T07:07:26.773Z,18.26
2018-09-13T07:08:01.977Z,18.30
2018-09-13T07:08:37.131Z,18.46
2018-09-13T07:09:14.485Z,18.46
2018-09-13T07:09:49.862Z,18.49
2018-09-13T07:10:25.051Z,18.40
2018-09-13T07:11:00.238Z,18.35
2018-09-13T07:11:35.463Z,18.35
2018-09-13T07:12:11.688Z,18.41
2018-09-13T07:12:47.003Z,18.36
2018-09-13T07:13:22.250Z,18.42
2018-09-13T07:13:57.434Z,18.42
2018-09-13T07:14:32.692Z,18.38
2018-09-13T07:15:07.876Z,18.42
2018-09-13T07:15:43.114Z,18.41
2018-09-13T07:16:18.387Z,18.43
2018-09-13T07:16:53.636Z,18.39
2018-09-13T07:17:28.830Z,18.36
2018-09-13T07:18:04.078Z,18.47
2018-09-13T07:18:39.291Z,18.35
2018-09-13T07:19:14.696Z,18.19
2018-09-13T07:19:50.016Z,18.17
2018-09-13T07:20:25.286Z,18.18
2018-09-13T07:21:00.449Z,18.16
2018-09-13T07:21:35.819Z,18.32
2018-09-13T07:22:11.359Z,18.32
2018-09-13T07:22:47.431Z,18.35
2018-09-13T07:23:22.804Z,18.44
2018-09-13T07:23:58.016Z,18.44
2018-09-13T07:24:32.743Z,18.46
2018-09-13T07:25:08.127Z,18.53
2018-09-13T07:25:43.445Z,18.48
2018-09-13T07:26:19.000Z,18.43
2018-09-13T07:26:54.194Z,18.53
2018-09-13T07:27:29.426Z,18.55
2018-09-13T07:28:04.859Z,18.63
2018-09-13T07:28:40.074Z,18.59
2018-09-13T07:29:15.387Z,18.73
2018-09-13T07:29:50.717Z,18.74
2018-09-13T07:30:26.446Z,18.71
2018-09-13T07:31:02.307Z,18.77
2018-09-13T07:31:37.685Z,18.77
2018-09-13T07:32:13.173Z,18.77
2018-09-13T07:32:48.416Z,18.80
2018-09-13T07:33:23.681Z,18.83
2018-09-13T07:33:58.818Z,18.82
2018-09-13T07:34:34.030Z,18.85
2018-09-13T07:35:09.224Z,18.96
2018-09-13T07:35:44.511Z,18.97
2018-09-13T07:36:19.744Z,18.97